TimeEST,TemperatureF,Dew PointF,Humidity,Sea Level PressureIn,VisibilityMPH,Wind Direction,Wind SpeedMPH,Gust SpeedMPH,PrecipitationIn,Events,Conditions,WindDirDegrees,DateUTC
12:12 AM,73.4,64.4,73,30.01,9.0,ESE,11.5,-,N/A,,Mostly Cloudy,120,2012-12-06 05:12:00
12:53 AM,72.0,66.9,84,30.00,10.0,East,8.1,-,0.02,,Mostly Cloudy,80,2012-12-06 05:53:00
1:00 AM,71.6,64.4,78,30.00,9.0,ENE,12.7,17.3,N/A,,Mostly Cloudy,60,2012-12-06 06:00:00
1:53 AM,72.0,64.9,78,29.99,7.0,NNE,8.1,-,0.00,Rain,Light Rain,20,2012-12-06 06:53:00
2:53 AM,71.1,66.9,87,29.98,10.0,NNW,3.5,-,0.00,,Mostly Cloudy,340,2012-12-06 07:53:00
2:55 AM,71.6,66.2,83,29.98,10.0,Calm,Calm,-,N/A,,Mostly Cloudy,0,2012-12-06 07:55:00
3:53 AM,72.0,64.9,78,29.97,10.0,ENE,4.6,-,N/A,,Partly Cloudy,70,2012-12-06 08:53:00
4:53 AM,73.0,66.0,79,29.96,10.0,ENE,6.9,-,N/A,,Partly Cloudy,70,2012-12-06 09:53:00
5:53 AM,72.0,64.9,78,29.96,10.0,East,9.2,-,N/A,,Partly Cloudy,90,2012-12-06 10:53:00
6:53 AM,72.0,66.0,81,29.97,10.0,East,5.8,-,N/A,,Partly Cloudy,100,2012-12-06 11:53:00
7:53 AM,73.0,64.9,76,29.99,10.0,East,4.6,-,N/A,,Partly Cloudy,90,2012-12-06 12:53:00
8:53 AM,73.9,66.0,76,30.00,10.0,ESE,5.8,-,N/A,,Scattered Clouds,120,2012-12-06 13:53:00
9:53 AM,75.9,66.0,71,30.00,10.0,SE,6.9,-,N/A,,Scattered Clouds,140,2012-12-06 14:53:00
10:53 AM,77.0,64.9,66,29.99,10.0,SE,3.5,-,N/A,,Partly Cloudy,140,2012-12-06 15:53:00
11:53 AM,79.0,66.0,64,29.97,10.0,Variable,3.5,-,N/A,,Partly Cloudy,0,2012-12-06 16:53:00
12:53 PM,79.0,64.0,60,29.94,10.0,ESE,8.1,-,N/A,,Scattered Clouds,120,2012-12-06 17:53:00
1:53 PM,77.0,64.9,66,29.92,10.0,ESE,8.1,-,N/A,,Scattered Clouds,110,2012-12-06 18:53:00
2:53 PM,77.0,64.0,64,29.91,10.0,East,9.2,-,N/A,,Mostly Cloudy,90,2012-12-06 19:53:00
3:53 PM,77.0,63.0,62,29.91,10.0,ESE,6.9,-,N/A,,Mostly Cloudy,110,2012-12-06 20:53:00
4:53 PM,77.0,62.1,60,29.92,10.0,SE,8.1,-,N/A,,Mostly Cloudy,140,2012-12-06 21:53:00
5:53 PM,75.0,64.0,69,29.93,10.0,ESE,5.8,-,N/A,,Scattered Clouds,120,2012-12-06 22:53:00
6:53 PM,73.0,64.0,73,29.94,10.0,ESE,4.6,-,N/A,,Scattered Clouds,120,2012-12-06 23:53:00
7:53 PM,73.4,64.4,73,29.95,10.0,ESE,4.6,-,N/A,,Scattered Clouds,120,2012-12-07 00:53:00
8:53 PM,73.0,64.0,73,29.96,10.0,Calm,Calm,-,N/A,,Partly Cloudy,0,2012-12-07 01:53:00
9:53 PM,73.0,64.9,76,29.95,10.0,Calm,Calm,-,N/A,,Mostly Cloudy,0,2012-12-07 02:53:00
10:53 PM,72.0,64.0,76,29.95,10.0,Calm,Calm,-,N/A,,Scattered Clouds,0,2012-12-07 03:53:00
11:53 PM,73.0,66.9,81,29.94,8.0,ESE,8.1,-,0.00,Rain,Light Rain,120,2012-12-07 04:53:00